createdAt,value
2023-02-04T00:00:07.971Z,99929.50
2023-02-04T00:02:34.777Z,99922.41
2023-02-04T00:05:02.024Z,99932.41
2023-02-04T00:07:28.669Z,99947.13
2023-02-04T00:09:55.359Z,99941.31
2023-02-04T00:12:22.080Z,99945.03
2023-02-04T00:14:48.673Z,99947.66
2023-02-04T00:17:15.474Z,99952.22
2023-02-04T00:19:42.369Z,99961.81
2023-02-04T00:22:09.374Z,99971.25
2023-02-04T00:24:37.079Z,99967.69
2023-02-04T00:27:04.229Z,99990.50
2023-02-04T00:29:30.918Z,99995.75
2023-02-04T00:31:58.205Z,99985.38
2023-02-04T00:34:25.211Z,100010.66
2023-02-04T00:36:51.865Z,99989.69
2023-02-04T00:39:18.464Z,100001.31
2023-02-04T00:41:45.190Z,99995.75
2023-02-04T00:44:14.104Z,99997.13
2023-02-04T00:46:42.586Z,100001.47
2023-02-04T00:49:10.874Z,99988.66
2023-02-04T00:51:40.935Z,99984.34
2023-02-04T00:54:07.951Z,100008.75
2023-02-04T00:56:34.742Z,100006.44
2023-02-04T00:59:01.476Z,100016.19
2023-02-04T01:01:28.322Z,100012.56
2023-02-04T01:03:55.158Z,100021.44
2023-02-04T01:06:21.820Z,100024.66
2023-02-04T01:08:48.481Z,100020.19
2023-02-04T01:11:15.069Z,100026.34
2023-02-04T01:13:41.736Z,100025.63
2023-02-04T01:16:08.624Z,100020.59
2023-02-04T01:18:35.588Z,100028.31
2023-02-04T01:21:02.236Z,100024.66
2023-02-04T01:23:28.820Z,100028.19
2023-02-04T01:25:55.415Z,100029.91
2023-02-04T01:28:22.267Z,100043.09
2023-02-04T01:30:48.924Z,100031.59
2023-02-04T01:33:15.667Z,100037.66
2023-02-04T01:35:42.217Z,100041.19
2023-02-04T01:38:08.811Z,100047.34
2023-02-04T01:40:35.539Z,100063.34
2023-02-04T01:43:02.497Z,100065.72
2023-02-04T01:45:30.804Z,100082.53
2023-02-04T01:47:57.719Z,100081.69
2023-02-04T01:50:24.372Z,100091.47
2023-02-04T01:52:51.002Z,100097.38
2023-02-04T01:55:21.969Z,100100.06
2023-02-04T01:57:50.891Z,100102.69
2023-02-04T02:00:22.708Z,100111.38
2023-02-04T02:02:52.049Z,100108.69
2023-02-04T02:05:25.191Z,100117.47
2023-02-04T02:07:54.220Z,100129.69
2023-02-04T02:10:21.588Z,100131.50
2023-02-04T02:12:49.005Z,100129.00
2023-02-04T02:15:16.904Z,100135.97
2023-02-04T02:17:43.806Z,100139.44
2023-02-04T02:20:13.113Z,100144.69
2023-02-04T02:23:06.367Z,100153.44
2023-02-04T02:25:33.894Z,100168.03
2023-02-04T02:28:01.786Z,100176.94
2023-02-04T02:30:29.581Z,100180.53
2023-02-04T02:32:57.415Z,100176.63
2023-02-04T02:35:24.221Z,100190.94
2023-02-04T02:37:50.973Z,100200.03
2023-02-04T02:40:18.014Z,100199.06
2023-02-04T02:42:48.173Z,100201.53
2023-02-04T02:45:23.217Z,100197.13
2023-02-04T02:47:50.652Z,100202.34
2023-02-04T02:50:22.308Z,100203.91
2023-02-04T02:52:49.040Z,100213.50
2023-02-04T02:55:19.264Z,100218.06
2023-02-04T02:57:47.958Z,100219.13
2023-02-04T03:00:20.772Z,100226.03
2023-02-04T03:03:04.502Z,100226.97
2023-02-04T03:05:34.330Z,100230.56
2023-02-04T03:08:01.022Z,100232.28
2023-02-04T03:10:27.861Z,100242.81
2023-02-04T03:12:54.648Z,100236.66
2023-02-04T03:15:21.386Z,100242.78
2023-02-04T03:17:48.393Z,100244.50
2023-02-04T03:20:17.022Z,100255.94
2023-02-04T03:22:43.813Z,100263.00
2023-02-04T03:25:10.491Z,100259.59
2023-02-04T03:27:37.194Z,100264.06
2023-02-04T03:30:04.164Z,100269.59
2023-02-04T03:32:30.800Z,100273.06
2023-02-04T03:34:57.415Z,100277.44
2023-02-04T03:37:24.016Z,100270.75
2023-02-04T03:39:50.674Z,100275.44
2023-02-04T03:42:17.828Z,100271.25
2023-02-04T03:44:44.689Z,100270.56
2023-02-04T03:47:11.296Z,100281.88
2023-02-04T03:49:37.981Z,100293.06
2023-02-04T03:52:05.167Z,100299.84
2023-02-04T03:54:31.784Z,100314.59
2023-02-04T03:56:58.360Z,100325.91
2023-02-04T03:59:24.960Z,100322.34
2023-02-04T04:01:52.699Z,100331.84
2023-02-04T04:04:19.970Z,100337.94
2023-02-04T04:06:46.651Z,100345.66
2023-02-04T04:09:13.384Z,100355.97
2023-02-04T04:11:39.983Z,100364.75
2023-02-04T04:14:06.633Z,100369.00
2023-02-04T04:16:33.249Z,100369.22
2023-02-04T04:18:59.901Z,100385.94
2023-02-04T04:21:26.535Z,100386.63
2023-02-04T04:23:53.266Z,100391.09
2023-02-04T04:26:20.174Z,100389.00
2023-02-04T04:28:46.766Z,100400.84
2023-02-04T04:31:13.608Z,100406.53
2023-02-04T04:33:40.377Z,100419.69
2023-02-04T04:36:08.129Z,100433.16
2023-02-04T04:38:34.831Z,100434.16
2023-02-04T04:41:01.458Z,100443.03
2023-02-04T04:43:28.130Z,100450.91
2023-02-04T04:45:54.842Z,100456.38
2023-02-04T04:48:21.836Z,100453.81
2023-02-04T04:50:48.533Z,100447.91
2023-02-04T04:53:15.154Z,100442.03
2023-02-04T04:55:41.795Z,100448.91
2023-02-04T04:58:09.041Z,100460.31
2023-02-04T05:00:35.813Z,100460.28
2023-02-04T05:03:02.495Z,100466.41
2023-02-04T05:05:29.105Z,100467.28
2023-02-04T05:07:55.755Z,100471.75
2023-02-04T05:10:22.452Z,100462.13
2023-02-04T05:12:49.089Z,100470.78
2023-02-04T05:15:15.740Z,100472.56
2023-02-04T05:17:42.313Z,100477.81
2023-02-04T05:20:09.669Z,100472.66
2023-02-04T05:22:36.284Z,100486.72
2023-02-04T05:25:03.192Z,100476.22
2023-02-04T05:27:29.780Z,100490.16
2023-02-04T05:29:56.415Z,100497.97
2023-02-04T05:32:23.014Z,100497.22
2023-02-04T05:34:49.578Z,100508.50
2023-02-04T05:37:17.541Z,100505.91
2023-02-04T05:39:44.174Z,100505.84
2023-02-04T05:42:10.788Z,100514.69
2023-02-04T05:44:37.408Z,100513.06
2023-02-04T05:47:04.070Z,100523.47
2023-02-04T05:49:30.692Z,100526.09
2023-02-04T05:51:57.283Z,100534.03
2023-02-04T05:54:23.932Z,100534.97
2023-02-04T05:56:51.840Z,100540.16
2023-02-04T05:59:18.528Z,100538.63
2023-02-04T06:01:45.154Z,100553.38
2023-02-04T06:04:11.799Z,100555.16
2023-02-04T06:06:38.532Z,100548.22
2023-02-04T06:09:05.148Z,100559.53
2023-02-04T06:11:31.788Z,100571.00
2023-02-04T06:13:58.582Z,100569.13
2023-02-04T06:16:25.382Z,100577.81
2023-02-04T06:18:52.023Z,100577.78
2023-02-04T06:21:18.801Z,100578.72
2023-02-04T06:23:45.594Z,100578.78
2023-02-04T06:26:12.606Z,100593.66
2023-02-04T06:28:39.270Z,100595.44
2023-02-04T06:31:06.270Z,100599.81
2023-02-04T06:33:32.912Z,100596.28
2023-02-04T06:35:59.617Z,100592.88
2023-02-04T06:38:26.199Z,100606.75
2023-02-04T06:40:53.868Z,100607.63
2023-02-04T06:43:21.877Z,100605.00
2023-02-04T06:45:48.751Z,100612.84
2023-02-04T06:48:15.363Z,100600.59
2023-02-04T06:50:42.041Z,100603.25
2023-02-04T06:53:08.955Z,100598.03
2023-02-04T06:55:35.542Z,100609.28
2023-02-04T06:58:02.652Z,100607.56
2023-02-04T07:00:31.688Z,100609.28
2023-02-04T07:02:59.077Z,100625.88
2023-02-04T07:05:25.916Z,100627.59
2023-02-04T07:07:52.612Z,100624.97
2023-02-04T07:10:21.076Z,100640.53
2023-02-04T07:12:47.681Z,100643.97
2023-02-04T07:15:14.658Z,100646.69
2023-02-04T07:17:41.802Z,100651.81
2023-02-04T07:20:09.464Z,100648.31
2023-02-04T07:22:36.146Z,100656.97
2023-02-04T07:25:02.943Z,100663.13
2023-02-04T07:27:29.669Z,100666.75
2023-02-04T07:29:56.328Z,100665.78
2023-02-04T07:32:22.967Z,100671.00
2023-02-04T07:34:49.544Z,100666.72
2023-02-04T07:37:16.228Z,100672.72
2023-02-04T07:39:42.776Z,100678.84
2023-02-04T07:42:09.440Z,100674.47
2023-02-04T07:44:37.600Z,100678.84
2023-02-04T07:47:04.332Z,100687.66
2023-02-04T07:49:30.969Z,100699.84
2023-02-04T07:51:58.022Z,100706.63
2023-02-04T07:54:24.672Z,100710.97
2023-02-04T07:56:51.279Z,100709.31
2023-02-04T07:59:17.910Z,100706.75
2023-02-04T08:01:44.620Z,100714.66
2023-02-04T08:04:11.257Z,100715.56
2023-02-04T08:06:37.840Z,100726.06
2023-02-04T08:09:04.543Z,100725.19
2023-02-04T08:11:31.353Z,100733.78
2023-02-04T08:13:57.987Z,100735.53
2023-02-04T08:16:24.689Z,100739.84
2023-02-04T08:18:51.339Z,100747.41
2023-02-04T08:21:19.400Z,100751.69
2023-02-04T08:23:46.171Z,100749.94
2023-02-04T08:26:12.761Z,100749.94
2023-02-04T08:28:39.420Z,100749.81
2023-02-04T08:31:07.159Z,100751.47
2023-02-04T08:33:33.991Z,100766.38
2023-02-04T08:36:00.614Z,100759.53
2023-02-04T08:38:27.372Z,100768.25
2023-02-04T08:40:54.135Z,100778.78
2023-02-04T08:43:20.795Z,100783.97
2023-02-04T08:45:47.504Z,100784.84
2023-02-04T08:48:14.172Z,100797.03
2023-02-04T08:50:40.778Z,100800.41
2023-02-04T08:53:07.431Z,100796.59
2023-02-04T08:55:34.069Z,100804.34
2023-02-04T08:58:01.445Z,100799.88
2023-02-04T09:00:28.403Z,100793.81
2023-02-04T09:02:55.099Z,100798.91
2023-02-04T09:05:21.781Z,100801.41
2023-02-04T09:07:48.413Z,100809.88
2023-02-04T09:10:15.280Z,100803.44
2023-02-04T09:12:42.820Z,100810.16
2023-02-04T09:15:10.962Z,100805.72
2023-02-04T09:17:38.993Z,100816.63
2023-02-04T09:20:06.607Z,100825.13
2023-02-04T09:22:33.501Z,100820.66
2023-02-04T09:25:00.143Z,100820.66
2023-02-04T09:27:26.804Z,100812.13
2023-02-04T09:29:53.386Z,100818.59
2023-02-04T09:32:20.110Z,100806.03
2023-02-04T09:34:46.752Z,100808.22
2023-02-04T09:37:13.418Z,100814.94
2023-02-04T09:39:40.040Z,100823.69
2023-02-04T09:42:06.940Z,100822.78
2023-02-04T09:44:33.589Z,100834.84
2023-02-04T09:47:01.419Z,100838.28
2023-02-04T09:49:28.575Z,100835.56
2023-02-04T09:51:55.951Z,100837.41
2023-02-04T09:54:23.779Z,100848.59
2023-02-04T09:56:52.060Z,100854.03
2023-02-04T09:59:24.293Z,100854.91
2023-02-04T10:02:02.179Z,100855.91
2023-02-04T10:04:29.415Z,100862.97
2023-02-04T10:06:59.026Z,100865.66
2023-02-04T10:09:26.124Z,100872.00
2023-02-04T10:11:52.946Z,100872.19
2023-02-04T10:14:23.036Z,100868.50
2023-02-04T10:16:58.856Z,100866.69
2023-02-04T10:19:27.674Z,100859.56
2023-02-04T10:21:54.379Z,100859.56
2023-02-04T10:24:30.672Z,100868.41
2023-02-04T10:27:09.072Z,100872.78
2023-02-04T10:29:36.032Z,100866.69
2023-02-04T10:32:02.682Z,100861.38
2023-02-04T10:34:39.922Z,100865.78
2023-02-04T10:37:20.734Z,100873.78
2023-02-04T10:39:49.257Z,100881.66
2023-02-04T10:42:34.064Z,100879.09
2023-02-04T10:45:00.890Z,100882.50
2023-02-04T10:47:31.095Z,100887.78
2023-02-04T10:50:06.366Z,100880.66
2023-02-04T10:52:39.858Z,100882.41
2023-02-04T10:55:13.329Z,100884.97
2023-02-04T10:57:41.304Z,100888.19
2023-02-04T11:00:20.163Z,100888.06
2023-02-04T11:02:57.396Z,100895.06
2023-02-04T11:05:30.176Z,100896.91
2023-02-04T11:07:56.948Z,100896.25
2023-02-04T11:10:28.784Z,100894.31
2023-02-04T11:12:55.285Z,100904.66
2023-02-04T11:15:37.273Z,100909.78
2023-02-04T11:18:27.664Z,100913.22
2023-02-04T11:20:57.973Z,100910.44
2023-02-04T11:23:27.691Z,100914.72
2023-02-04T11:26:14.092Z,100925.09
2023-02-04T11:28:46.240Z,100929.25
2023-02-04T11:31:29.385Z,100930.97
2023-02-04T11:34:14.752Z,100937.28
2023-02-04T11:36:59.491Z,100942.31
2023-02-04T11:39:32.646Z,100942.88
2023-02-04T11:42:02.366Z,100944.38
2023-02-04T11:44:29.519Z,100935.66
2023-02-04T11:46:58.399Z,100936.22
2023-02-04T11:49:27.161Z,100936.03
2023-02-04T11:52:08.798Z,100941.72
2023-02-04T11:54:36.561Z,100944.19
2023-02-04T11:57:03.905Z,100941.75
2023-02-04T11:59:30.661Z,100939.97
2023-02-04T12:02:16.133Z,100940.06
2023-02-04T12:04:52.958Z,100935.09
2023-02-04T12:07:28.475Z,100934.63
2023-02-04T12:09:55.874Z,100939.94
2023-02-04T12:12:30.976Z,100938.63
2023-02-04T12:15:24.069Z,100942.22
2023-02-04T12:18:05.280Z,100935.94
2023-02-04T12:20:31.947Z,100942.16
2023-02-04T12:22:58.621Z,100942.41
2023-02-04T12:25:26.068Z,100941.69
2023-02-04T12:27:55.640Z,100938.91
2023-02-04T12:30:23.734Z,100937.69
2023-02-04T12:32:50.370Z,100942.22
2023-02-04T12:35:17.183Z,100937.44
2023-02-04T12:37:43.847Z,100940.63
2023-02-04T12:40:21.054Z,100943.47
2023-02-04T12:42:48.035Z,100938.47
2023-02-04T12:45:17.200Z,100937.38
2023-02-04T12:47:44.501Z,100941.84
2023-02-04T12:50:13.228Z,100938.81
2023-02-04T12:52:40.125Z,100937.41
2023-02-04T12:55:08.514Z,100939.53
2023-02-04T12:57:35.400Z,100935.97
2023-02-04T13:00:02.282Z,100932.47
2023-02-04T13:02:29.473Z,100939.97
2023-02-04T13:04:57.196Z,100939.41
2023-02-04T13:07:24.051Z,100938.41
2023-02-04T13:09:50.701Z,100949.25
2023-02-04T13:12:17.351Z,100944.13
2023-02-04T13:14:44.709Z,100950.84
2023-02-04T13:17:11.926Z,100954.63
2023-02-04T13:19:38.583Z,100948.19
2023-02-04T13:22:05.298Z,100958.78
2023-02-04T13:24:32.054Z,100963.38
2023-02-04T13:26:58.757Z,100963.41
2023-02-04T13:29:25.386Z,100965.00
2023-02-04T13:31:52.243Z,100961.66
2023-02-04T13:34:19.375Z,100969.34
2023-02-04T13:36:46.096Z,100963.81
2023-02-04T13:39:12.738Z,100959.94
2023-02-04T13:41:39.328Z,100963.53
2023-02-04T13:44:05.987Z,100959.16
2023-02-04T13:46:33.499Z,100964.28
2023-02-04T13:49:00.060Z,100965.09
2023-02-04T13:51:26.726Z,100972.81
2023-02-04T13:53:53.314Z,100971.88
2023-02-04T13:56:19.902Z,100969.72
2023-02-04T13:58:46.481Z,100963.75
2023-02-04T14:01:14.053Z,100960.03
2023-02-04T14:03:41.303Z,100961.38
2023-02-04T14:06:07.977Z,100956.56
2023-02-04T14:08:34.549Z,100958.00
2023-02-04T14:11:01.243Z,100959.28
2023-02-04T14:13:28.129Z,100964.97
2023-02-04T14:15:54.716Z,100962.22
2023-02-04T14:18:21.304Z,100963.72
2023-02-04T14:20:47.942Z,100963.84
2023-02-04T14:23:14.628Z,100968.88
2023-02-04T14:25:41.710Z,100949.00
2023-02-04T14:28:09.503Z,100957.41
2023-02-04T14:30:36.689Z,100955.97
2023-02-04T14:33:03.742Z,100951.81
2023-02-04T14:35:32.096Z,100956.28
2023-02-04T14:37:58.928Z,100951.44
2023-02-04T14:40:25.551Z,100957.50
2023-02-04T14:42:52.287Z,100956.56
2023-02-04T14:45:19.083Z,100954.75
2023-02-04T14:47:45.716Z,100951.13
2023-02-04T14:50:15.529Z,100957.44
2023-02-04T14:52:42.445Z,100957.78
2023-02-04T14:55:11.126Z,100975.34
2023-02-04T14:57:37.720Z,100972.19
2023-02-04T15:00:05.631Z,100964.41
2023-02-04T15:02:32.423Z,100963.88
2023-02-04T15:04:59.107Z,100970.00
2023-02-04T15:07:25.843Z,100963.22
2023-02-04T15:09:52.542Z,100970.31
2023-02-04T15:12:19.187Z,100965.88
2023-02-04T15:14:45.933Z,100971.00
2023-02-04T15:17:12.991Z,100970.47
2023-02-04T15:19:39.620Z,100979.44
2023-02-04T15:22:06.280Z,100979.41
2023-02-04T15:24:32.860Z,100981.41
2023-02-04T15:26:59.530Z,100980.59
2023-02-04T15:29:26.184Z,100981.72
2023-02-04T15:31:52.959Z,100981.00
2023-02-04T15:34:19.693Z,100980.19
2023-02-04T15:36:46.343Z,100986.53
2023-02-04T15:39:12.926Z,100984.78
2023-02-04T15:41:39.628Z,100984.84
2023-02-04T15:44:06.233Z,100991.91
2023-02-04T15:46:33.241Z,100985.78
2023-02-04T15:49:00.124Z,100989.16
2023-02-04T15:51:26.882Z,100984.81
2023-02-04T15:53:53.877Z,100995.28
2023-02-04T15:56:20.621Z,100996.28
2023-02-04T15:58:47.228Z,100996.47
2023-02-04T16:01:15.642Z,101001.84
2023-02-04T16:03:44.703Z,101001.19
2023-02-04T16:06:11.592Z,100998.63
2023-02-04T16:08:38.953Z,101009.25
2023-02-04T16:11:06.224Z,101001.47
2023-02-04T16:13:33.037Z,101010.34
2023-02-04T16:15:59.687Z,101012.25
2023-02-04T16:18:26.477Z,101022.03
2023-02-04T16:20:53.201Z,101017.13
2023-02-04T16:23:19.884Z,101027.63
2023-02-04T16:25:46.533Z,101021.50
2023-02-04T16:28:13.322Z,101025.91
2023-02-04T16:30:40.027Z,101029.72
2023-02-04T16:33:06.990Z,101026.59
2023-02-04T16:35:58.457Z,101024.97
2023-02-04T16:38:25.691Z,101028.44
2023-02-04T16:40:52.347Z,101031.94
2023-02-04T16:43:19.016Z,101033.84
2023-02-04T16:45:45.690Z,101029.69
2023-02-04T16:48:12.428Z,101034.16
2023-02-04T16:50:39.025Z,101029.06
2023-02-04T16:53:05.756Z,101026.50
2023-02-04T16:55:33.628Z,101031.88
2023-02-04T16:58:00.388Z,101040.75
2023-02-04T17:00:27.026Z,101039.94
2023-02-04T17:02:53.683Z,101041.75
2023-02-04T17:05:20.339Z,101031.41
2023-02-04T17:07:46.991Z,101034.13
2023-02-04T17:10:13.711Z,101043.72
2023-02-04T17:12:40.343Z,101034.19
2023-02-04T17:15:07.381Z,101034.28
2023-02-04T17:17:34.039Z,101039.69
2023-02-04T17:20:00.852Z,101032.09
2023-02-04T17:22:27.579Z,101039.09
2023-02-04T17:24:54.195Z,101036.56
2023-02-04T17:27:20.803Z,101040.91
2023-02-04T17:29:47.433Z,101041.84
2023-02-04T17:32:14.106Z,101046.28
2023-02-04T17:34:40.688Z,101055.13
2023-02-04T17:37:07.303Z,101044.78
2023-02-04T17:39:33.951Z,101049.16
2023-02-04T17:42:00.612Z,101051.88
2023-02-04T17:44:27.894Z,101050.22
2023-02-04T17:46:55.106Z,101063.34
2023-02-04T17:49:21.754Z,101068.63
2023-02-04T17:51:48.400Z,101069.53
2023-02-04T17:54:15.140Z,101071.34
2023-02-04T17:56:41.751Z,101078.25
2023-02-04T17:59:11.493Z,101074.88
2023-02-04T18:01:42.206Z,101076.69
2023-02-04T18:04:12.935Z,101082.84
2023-02-04T18:06:40.000Z,101079.41
2023-02-04T18:09:17.505Z,101086.34
2023-02-04T18:11:44.671Z,101082.00
2023-02-04T18:14:20.789Z,101087.28
2023-02-04T18:16:47.419Z,101094.28
2023-02-04T18:19:21.047Z,101089.13
2023-02-04T18:21:49.614Z,101084.88
2023-02-04T18:24:30.639Z,101088.38
2023-02-04T18:27:01.625Z,101088.38
2023-02-04T18:29:31.323Z,101082.34
2023-02-04T18:32:10.559Z,101083.22
2023-02-04T18:34:44.314Z,101082.38
2023-02-04T18:37:32.322Z,101077.22
2023-02-04T18:40:11.770Z,101077.22
2023-02-04T18:42:41.428Z,101076.38
2023-02-04T18:45:25.056Z,101083.38
2023-02-04T18:47:55.753Z,101082.50
2023-02-04T18:50:29.792Z,101079.88
2023-02-04T18:53:01.572Z,101079.94
2023-02-04T18:55:37.954Z,101085.13
2023-02-04T18:58:14.492Z,101091.25
2023-02-04T19:00:42.334Z,101093.00
2023-02-04T19:03:33.535Z,101106.06
2023-02-04T19:06:04.308Z,101096.53
2023-02-04T19:08:40.324Z,101091.34
2023-02-04T19:11:23.150Z,101089.66
2023-02-04T19:13:52.853Z,101087.03
2023-02-04T19:16:36.717Z,101094.00
2023-02-04T19:19:24.330Z,101090.56
2023-02-04T19:21:51.079Z,101096.63
2023-02-04T19:24:21.863Z,101100.13
2023-02-04T19:26:57.619Z,101101.84
2023-02-04T19:29:30.367Z,101101.00
2023-02-04T19:32:24.035Z,101108.81
2023-02-04T19:34:52.740Z,101112.31
2023-02-04T19:37:40.512Z,101110.59
2023-02-04T19:40:31.782Z,101119.25
2023-02-04T19:43:15.490Z,101121.00
2023-02-04T19:45:44.930Z,101109.72
2023-02-04T19:48:27.654Z,101109.72
2023-02-04T19:50:54.913Z,101114.06
2023-02-04T19:53:27.239Z,101121.00
2023-02-04T19:55:54.659Z,101128.81
2023-02-04T19:58:28.757Z,101124.47
2023-02-04T20:01:12.199Z,101127.09
2023-02-04T20:03:46.844Z,101121.03
2023-02-04T20:06:32.140Z,101122.75
2023-02-04T20:09:18.435Z,101119.28
2023-02-04T20:11:57.935Z,101120.16
2023-02-04T20:14:49.777Z,101117.56
2023-02-04T20:17:20.878Z,101122.78
2023-02-04T20:19:48.857Z,101125.34
2023-02-04T20:22:22.145Z,101121.03
2023-02-04T20:24:55.782Z,101118.41
2023-02-04T20:27:38.320Z,101105.41
2023-02-04T20:30:11.486Z,101105.44
2023-02-04T20:32:41.253Z,101106.28
2023-02-04T20:35:07.813Z,101114.06
2023-02-04T20:37:34.541Z,101111.47
2023-02-04T20:40:13.733Z,101114.09
2023-02-04T20:42:45.617Z,101106.28
2023-02-04T20:45:12.640Z,101119.28
2023-02-04T20:47:39.421Z,101121.88
2023-02-04T20:50:44.928Z,101125.34
2023-02-04T20:53:20.836Z,101143.53
2023-02-04T20:56:04.165Z,101134.84
2023-02-04T20:58:37.971Z,101142.66
2023-02-04T21:01:27.672Z,101138.28
2023-02-04T21:03:54.328Z,101153.03
2023-02-04T21:06:24.842Z,101140.03
2023-02-04T21:08:53.246Z,101139.19
2023-02-04T21:11:20.333Z,101140.91
2023-02-04T21:13:47.646Z,101134.00
2023-02-04T21:16:14.850Z,101138.31
2023-02-04T21:18:41.680Z,101140.94
2023-02-04T21:21:09.937Z,101135.72
2023-02-04T21:23:37.066Z,101145.22
2023-02-04T21:26:05.638Z,101142.63
2023-02-04T21:28:33.246Z,101141.75
2023-02-04T21:31:00.702Z,101143.47
2023-02-04T21:33:27.643Z,101150.41
2023-02-04T21:35:54.579Z,101146.91
2023-02-04T21:38:21.423Z,101138.28
2023-02-04T21:40:48.264Z,101136.53
2023-02-04T21:43:14.975Z,101138.28
2023-02-04T21:45:41.651Z,101136.53
2023-02-04T21:48:08.274Z,101129.59
2023-02-04T21:50:36.414Z,101125.25
2023-02-04T21:53:03.158Z,101126.13
2023-02-04T21:55:29.977Z,101119.19
2023-02-04T21:57:56.677Z,101125.25
2023-02-04T22:00:23.962Z,101120.88
2023-02-04T22:02:52.231Z,101120.06
2023-02-04T22:05:19.686Z,101117.47
2023-02-04T22:07:46.998Z,101114.88
2023-02-04T22:10:25.531Z,101118.31
2023-02-04T22:12:52.784Z,101112.22
2023-02-04T22:15:24.137Z,101107.88
2023-02-04T22:17:52.895Z,101112.22
2023-02-04T22:20:20.960Z,101116.53
2023-02-04T22:22:48.414Z,101111.34
2023-02-04T22:25:17.274Z,101120.84
2023-02-04T22:27:44.317Z,101123.44
2023-02-04T22:30:12.785Z,101113.91
2023-02-04T22:32:39.901Z,101117.38
2023-02-04T22:35:07.981Z,101112.13
2023-02-04T22:37:34.674Z,101113.84
2023-02-04T22:40:01.303Z,101120.75
2023-02-04T22:42:27.921Z,101115.53
2023-02-04T22:44:54.880Z,101113.81
2023-02-04T22:47:21.576Z,101113.00
2023-02-04T22:49:48.274Z,101112.16
2023-02-04T22:52:15.064Z,101106.94
2023-02-04T22:54:43.393Z,101105.22
2023-02-04T22:57:10.455Z,101104.31
2023-02-04T22:59:37.245Z,101105.16
2023-02-04T23:02:04.103Z,101100.00
2023-02-04T23:04:30.754Z,101115.56
2023-02-04T23:06:57.483Z,101108.56
2023-02-04T23:09:24.140Z,101115.47
2023-02-04T23:11:50.828Z,101115.44
2023-02-04T23:14:17.628Z,101112.88
2023-02-04T23:16:44.302Z,101107.72
2023-02-04T23:19:10.953Z,101112.03
2023-02-04T23:21:37.581Z,101114.59
2023-02-04T23:24:04.580Z,101111.97
2023-02-04T23:26:31.261Z,101113.72
2023-02-04T23:28:58.227Z,101113.72
2023-02-04T23:31:25.117Z,101118.88
2023-02-04T23:33:51.709Z,101121.44
2023-02-04T23:36:18.397Z,101123.16
2023-02-04T23:38:45.099Z,101125.69
2023-02-04T23:41:11.653Z,101128.31
2023-02-04T23:43:38.301Z,101127.47
2023-02-04T23:46:05.098Z,101124.06
2023-02-04T23:48:31.762Z,101131.78
2023-02-04T23:50:58.429Z,101121.34
2023-02-04T23:53:25.220Z,101123.94
2023-02-04T23:55:51.973Z,101125.66
2023-02-04T23:58:18.819Z,101127.34
